createdAt,value
2022-09-26T00:05:47.731Z,20.56
2022-09-26T00:25:46.952Z,20.54
2022-09-26T00:45:47.764Z,20.55
2022-09-26T01:05:46.923Z,20.54
2022-09-26T01:25:47.669Z,20.55
2022-09-26T01:45:47.549Z,20.54
2022-09-26T02:05:47.631Z,20.54
2022-09-26T02:25:47.608Z,20.53
2022-09-26T03:05:47.577Z,20.52
2022-09-26T03:25:47.562Z,20.52
2022-09-26T03:45:47.628Z,20.52
2022-09-26T04:05:46.755Z,20.51
2022-09-26T04:45:47.499Z,20.51
2022-09-26T06:05:47.398Z,20.49
2022-09-26T06:25:47.383Z,20.49
2022-09-26T06:45:46.583Z,20.49
2022-09-26T07:05:47.327Z,20.49
2022-09-26T07:25:47.309Z,20.49
2022-09-26T07:45:47.167Z,20.49
2022-09-26T08:05:47.289Z,20.49
2022-09-26T08:25:47.240Z,20.48
2022-09-26T09:05:47.060Z,20.48
2022-09-26T09:25:46.420Z,20.48
2022-09-26T09:45:47.147Z,20.48
2022-09-26T10:05:46.384Z,20.48
2022-09-26T10:25:47.115Z,20.48
2022-09-26T10:45:47.097Z,20.48
2022-09-26T11:05:47.062Z,20.47
2022-09-26T11:25:47.058Z,20.46
2022-09-26T11:45:47.671Z,20.47
2022-09-26T12:05:46.260Z,20.47
2022-09-26T13:05:46.167Z,20.46
2022-09-26T13:25:49.680Z,20.46
2022-09-26T13:45:46.885Z,20.43
2022-09-26T14:05:46.992Z,20.43
2022-09-26T14:25:46.837Z,20.44
2022-09-26T14:45:46.836Z,20.44
2022-09-26T15:05:46.822Z,20.42
2022-09-26T15:25:46.761Z,20.41
2022-09-26T15:45:46.621Z,20.42
2022-09-26T16:25:46.705Z,20.4
2022-09-26T16:45:46.684Z,20.41
2022-09-26T17:05:46.671Z,20.42
2022-09-26T17:25:46.641Z,20.4
2022-09-26T17:45:46.623Z,20.4
2022-09-26T18:05:46.609Z,20.4
2022-09-26T18:25:46.584Z,20.4
2022-09-26T18:45:45.891Z,20.38
2022-09-26T19:05:46.551Z,20.38
2022-09-26T19:25:46.404Z,20.39
2022-09-26T19:45:46.539Z,20.38
2022-09-26T20:05:46.493Z,20.39
2022-09-26T20:25:46.467Z,20.38
2022-09-26T20:45:46.483Z,20.4
2022-09-26T21:45:46.436Z,20.39
2022-09-26T22:05:46.365Z,20.41
2022-09-26T22:25:46.373Z,20.4
2022-09-26T22:45:46.374Z,20.38
2022-09-26T23:05:46.301Z,20.4
2022-09-26T23:25:46.287Z,20.38
